sensor_id;sensor_type;location;lat;lon;timestamp;P1;durP1;ratioP1;P2;durP2;ratioP2
66425;SDS011;53237;46.158;14.604;2023-05-07T00:01:47;2.80;;;2.60;;
66425;SDS011;53237;46.158;14.604;2023-05-07T00:04:13;3.50;;;3.20;;
66425;SDS011;53237;46.158;14.604;2023-05-07T00:06:39;3.72;;;3.28;;
66425;SDS011;53237;46.158;14.604;2023-05-07T00:09:06;3.72;;;3.42;;
66425;SDS011;53237;46.158;14.604;2023-05-07T00:11:32;3.67;;;3.38;;
66425;SDS011;53237;46.158;14.604;2023-05-07T00:13:58;4.00;;;3.42;;
66425;SDS011;53237;46.158;14.604;2023-05-07T00:16:24;3.53;;;3.30;;
66425;SDS011;53237;46.158;14.604;2023-05-07T00:18:50;4.05;;;3.75;;
66425;SDS011;53237;46.158;14.604;2023-05-07T00:21:16;3.67;;;3.38;;
66425;SDS011;53237;46.158;14.604;2023-05-07T00:23:42;3.70;;;3.40;;
66425;SDS011;53237;46.158;14.604;2023-05-07T00:26:08;4.05;;;3.67;;
66425;SDS011;53237;46.158;14.604;2023-05-07T00:28:34;4.30;;;3.90;;
66425;SDS011;53237;46.158;14.604;2023-05-07T00:31:00;3.53;;;3.22;;
66425;SDS011;53237;46.158;14.604;2023-05-07T00:33:26;3.78;;;3.47;;
66425;SDS011;53237;46.158;14.604;2023-05-07T00:35:52;3.65;;;3.40;;
66425;SDS011;53237;46.158;14.604;2023-05-07T00:38:21;3.65;;;3.35;;
66425;SDS011;53237;46.158;14.604;2023-05-07T00:40:47;3.35;;;3.05;;
66425;SDS011;53237;46.158;14.604;2023-05-07T00:43:13;3.70;;;3.40;;
66425;SDS011;53237;46.158;14.604;2023-05-07T00:45:40;3.72;;;3.42;;
66425;SDS011;53237;46.158;14.604;2023-05-07T00:48:06;3.75;;;3.45;;
66425;SDS011;53237;46.158;14.604;2023-05-07T00:50:32;4.20;;;3.80;;
66425;SDS011;53237;46.158;14.604;2023-05-07T00:52:58;3.90;;;3.60;;
66425;SDS011;53237;46.158;14.604;2023-05-07T00:55:24;3.38;;;3.17;;
66425;SDS011;53237;46.158;14.604;2023-05-07T00:57:50;3.50;;;3.20;;
66425;SDS011;53237;46.158;14.604;2023-05-07T01:00:17;4.00;;;3.70;;
66425;SDS011;53237;46.158;14.604;2023-05-07T01:02:43;3.80;;;3.50;;
66425;SDS011;53237;46.158;14.604;2023-05-07T01:05:12;3.53;;;3.22;;
66425;SDS011;53237;46.158;14.604;2023-05-07T01:07:38;3.90;;;3.60;;
66425;SDS011;53237;46.158;14.604;2023-05-07T01:10:05;3.92;;;3.63;;
66425;SDS011;53237;46.158;14.604;2023-05-07T01:12:32;3.22;;;3.03;;
66425;SDS011;53237;46.158;14.604;2023-05-07T01:14:58;3.30;;;3.00;;
66425;SDS011;53237;46.158;14.604;2023-05-07T01:17:24;3.38;;;3.08;;
66425;SDS011;53237;46.158;14.604;2023-05-07T01:19:50;3.55;;;3.25;;
66425;SDS011;53237;46.158;14.604;2023-05-07T01:22:23;3.60;;;3.30;;
66425;SDS011;53237;46.158;14.604;2023-05-07T01:24:52;3.05;;;2.85;;
66425;SDS011;53237;46.158;14.604;2023-05-07T01:27:19;4.38;;;3.08;;
66425;SDS011;53237;46.158;14.604;2023-05-07T01:29:45;3.38;;;3.08;;
66425;SDS011;53237;46.158;14.604;2023-05-07T01:32:10;3.40;;;3.10;;
66425;SDS011;53237;46.158;14.604;2023-05-07T01:34:38;2.85;;;2.65;;
66425;SDS011;53237;46.158;14.604;2023-05-07T01:37:04;3.30;;;3.08;;
66425;SDS011;53237;46.158;14.604;2023-05-07T01:39:31;3.40;;;2.92;;
66425;SDS011;53237;46.158;14.604;2023-05-07T01:41:57;3.10;;;2.90;;
66425;SDS011;53237;46.158;14.604;2023-05-07T01:44:24;3.08;;;2.80;;
66425;SDS011;53237;46.158;14.604;2023-05-07T01:46:51;3.03;;;2.72;;
66425;SDS011;53237;46.158;14.604;2023-05-07T01:49:17;2.90;;;2.70;;
66425;SDS011;53237;46.158;14.604;2023-05-07T01:51:43;2.90;;;2.70;;
66425;SDS011;53237;46.158;14.604;2023-05-07T01:54:09;2.97;;;2.78;;
66425;SDS011;53237;46.158;14.604;2023-05-07T01:56:35;2.70;;;2.50;;
66425;SDS011;53237;46.158;14.604;2023-05-07T01:59:01;3.00;;;2.80;;
66425;SDS011;53237;46.158;14.604;2023-05-07T02:01:27;3.53;;;3.22;;
66425;SDS011;53237;46.158;14.604;2023-05-07T02:03:53;2.35;;;2.22;;
66425;SDS011;53237;46.158;14.604;2023-05-07T02:06:20;2.90;;;2.60;;
66425;SDS011;53237;46.158;14.604;2023-05-07T02:08:46;2.72;;;2.53;;
66425;SDS011;53237;46.158;14.604;2023-05-07T02:11:12;2.58;;;2.40;;
66425;SDS011;53237;46.158;14.604;2023-05-07T02:13:38;2.63;;;2.42;;
66425;SDS011;53237;46.158;14.604;2023-05-07T02:16:04;2.55;;;2.35;;
66425;SDS011;53237;46.158;14.604;2023-05-07T02:18:30;3.63;;;2.35;;
66425;SDS011;53237;46.158;14.604;2023-05-07T02:20:56;3.08;;;2.75;;
66425;SDS011;53237;46.158;14.604;2023-05-07T02:23:22;2.80;;;2.60;;
66425;SDS011;53237;46.158;14.604;2023-05-07T02:25:48;2.55;;;2.35;;
66425;SDS011;53237;46.158;14.604;2023-05-07T02:28:14;2.70;;;2.50;;
66425;SDS011;53237;46.158;14.604;2023-05-07T02:30:40;2.50;;;2.30;;
66425;SDS011;53237;46.158;14.604;2023-05-07T02:33:06;2.72;;;2.53;;
66425;SDS011;53237;46.158;14.604;2023-05-07T02:35:33;3.08;;;2.78;;
66425;SDS011;53237;46.158;14.604;2023-05-07T02:37:59;2.55;;;2.35;;
66425;SDS011;53237;46.158;14.604;2023-05-07T02:40:25;2.65;;;2.45;;
66425;SDS011;53237;46.158;14.604;2023-05-07T02:42:51;2.97;;;2.78;;
66425;SDS011;53237;46.158;14.604;2023-05-07T02:45:17;2.55;;;2.35;;
66425;SDS011;53237;46.158;14.604;2023-05-07T02:47:43;2.75;;;2.53;;
66425;SDS011;53237;46.158;14.604;2023-05-07T02:50:09;3.17;;;2.95;;
66425;SDS011;53237;46.158;14.604;2023-05-07T02:52:35;2.80;;;2.35;;
66425;SDS011;53237;46.158;14.604;2023-05-07T02:55:01;3.03;;;2.83;;
66425;SDS011;53237;46.158;14.604;2023-05-07T02:57:27;2.83;;;2.63;;
66425;SDS011;53237;46.158;14.604;2023-05-07T02:59:53;3.08;;;2.88;;
66425;SDS011;53237;46.158;14.604;2023-05-07T03:02:19;2.60;;;2.40;;
66425;SDS011;53237;46.158;14.604;2023-05-07T03:04:45;2.80;;;2.60;;
66425;SDS011;53237;46.158;14.604;2023-05-07T03:07:11;2.25;;;2.13;;
66425;SDS011;53237;46.158;14.604;2023-05-07T03:09:37;2.75;;;2.55;;
66425;SDS011;53237;46.158;14.604;2023-05-07T03:12:03;2.35;;;2.25;;
66425;SDS011;53237;46.158;14.604;2023-05-07T03:14:29;2.65;;;2.38;;
66425;SDS011;53237;46.158;14.604;2023-05-07T03:16:55;2.60;;;2.40;;
66425;SDS011;53237;46.158;14.604;2023-05-07T03:19:21;2.33;;;2.03;;
66425;SDS011;53237;46.158;14.604;2023-05-07T03:21:47;2.40;;;2.20;;
66425;SDS011;53237;46.158;14.604;2023-05-07T03:24:13;2.67;;;2.47;;
66425;SDS011;53237;46.158;14.604;2023-05-07T03:26:39;2.20;;;2.00;;
66425;SDS011;53237;46.158;14.604;2023-05-07T03:29:05;2.30;;;2.20;;
66425;SDS011;53237;46.158;14.604;2023-05-07T03:31:31;2.47;;;2.15;;
66425;SDS011;53237;46.158;14.604;2023-05-07T03:33:57;2.35;;;2.22;;
66425;SDS011;53237;46.158;14.604;2023-05-07T03:36:23;2.55;;;2.35;;
66425;SDS011;53237;46.158;14.604;2023-05-07T03:38:51;2.30;;;2.20;;
66425;SDS011;53237;46.158;14.604;2023-05-07T03:41:17;2.90;;;2.30;;
66425;SDS011;53237;46.158;14.604;2023-05-07T03:43:43;2.08;;;1.98;;
66425;SDS011;53237;46.158;14.604;2023-05-07T03:46:09;2.50;;;2.30;;
66425;SDS011;53237;46.158;14.604;2023-05-07T03:48:35;2.60;;;2.40;;
66425;SDS011;53237;46.158;14.604;2023-05-07T03:51:01;2.30;;;2.10;;
66425;SDS011;53237;46.158;14.604;2023-05-07T03:53:27;2.42;;;2.22;;
66425;SDS011;53237;46.158;14.604;2023-05-07T03:55:53;2.70;;;2.50;;
66425;SDS011;53237;46.158;14.604;2023-05-07T03:58:19;2.40;;;2.10;;
66425;SDS011;53237;46.158;14.604;2023-05-07T04:00:45;1.90;;;1.80;;
66425;SDS011;53237;46.158;14.604;2023-05-07T04:03:11;2.10;;;2.00;;
66425;SDS011;53237;46.158;14.604;2023-05-07T04:05:37;2.40;;;2.20;;
66425;SDS011;53237;46.158;14.604;2023-05-07T04:08:03;2.80;;;2.22;;
66425;SDS011;53237;46.158;14.604;2023-05-07T04:10:30;2.17;;;2.08;;
66425;SDS011;53237;46.158;14.604;2023-05-07T04:12:56;2.67;;;2.45;;
66425;SDS011;53237;46.158;14.604;2023-05-07T04:15:22;2.28;;;2.13;;
66425;SDS011;53237;46.158;14.604;2023-05-07T04:17:48;2.20;;;2.00;;
66425;SDS011;53237;46.158;14.604;2023-05-07T04:20:15;1.75;;;1.65;;
66425;SDS011;53237;46.158;14.604;2023-05-07T04:22:42;2.08;;;1.90;;
66425;SDS011;53237;46.158;14.604;2023-05-07T04:25:08;2.33;;;2.13;;
66425;SDS011;53237;46.158;14.604;2023-05-07T04:27:35;1.92;;;1.83;;
66425;SDS011;53237;46.158;14.604;2023-05-07T04:30:04;2.15;;;1.92;;
66425;SDS011;53237;46.158;14.604;2023-05-07T04:32:31;2.40;;;2.30;;
66425;SDS011;53237;46.158;14.604;2023-05-07T04:34:57;1.90;;;1.80;;
66425;SDS011;53237;46.158;14.604;2023-05-07T04:37:23;2.10;;;2.00;;
66425;SDS011;53237;46.158;14.604;2023-05-07T04:39:49;2.00;;;1.90;;
66425;SDS011;53237;46.158;14.604;2023-05-07T04:42:15;2.33;;;2.20;;
66425;SDS011;53237;46.158;14.604;2023-05-07T04:44:41;2.25;;;2.08;;
66425;SDS011;53237;46.158;14.604;2023-05-07T04:47:07;2.33;;;2.22;;
66425;SDS011;53237;46.158;14.604;2023-05-07T04:49:33;2.40;;;2.30;;
66425;SDS011;53237;46.158;14.604;2023-05-07T04:51:59;2.20;;;2.10;;
66425;SDS011;53237;46.158;14.604;2023-05-07T04:54:26;3.08;;;2.25;;
66425;SDS011;53237;46.158;14.604;2023-05-07T04:56:52;2.30;;;2.20;;
66425;SDS011;53237;46.158;14.604;2023-05-07T04:59:18;2.35;;;2.15;;
66425;SDS011;53237;46.158;14.604;2023-05-07T05:01:43;2.20;;;2.10;;
66425;SDS011;53237;46.158;14.604;2023-05-07T05:04:09;2.20;;;2.10;;
66425;SDS011;53237;46.158;14.604;2023-05-07T05:06:35;2.42;;;2.25;;
66425;SDS011;53237;46.158;14.604;2023-05-07T05:09:01;2.20;;;2.10;;
66425;SDS011;53237;46.158;14.604;2023-05-07T05:11:29;2.55;;;2.35;;
66425;SDS011;53237;46.158;14.604;2023-05-07T05:13:55;2.63;;;2.42;;
66425;SDS011;53237;46.158;14.604;2023-05-07T05:16:21;2.10;;;2.00;;
66425;SDS011;53237;46.158;14.604;2023-05-07T05:18:48;2.20;;;2.10;;
66425;SDS011;53237;46.158;14.604;2023-05-07T05:21:14;2.38;;;2.20;;
66425;SDS011;53237;46.158;14.604;2023-05-07T05:23:40;1.98;;;1.88;;
66425;SDS011;53237;46.158;14.604;2023-05-07T05:26:05;2.60;;;2.40;;
66425;SDS011;53237;46.158;14.604;2023-05-07T05:28:31;2.53;;;2.33;;
66425;SDS011;53237;46.158;14.604;2023-05-07T05:30:57;2.20;;;2.00;;
66425;SDS011;53237;46.158;14.604;2023-05-07T05:33:23;2.22;;;2.10;;
66425;SDS011;53237;46.158;14.604;2023-05-07T05:35:49;2.28;;;2.10;;
66425;SDS011;53237;46.158;14.604;2023-05-07T05:38:15;2.13;;;2.03;;
66425;SDS011;53237;46.158;14.604;2023-05-07T05:40:42;2.00;;;1.90;;
66425;SDS011;53237;46.158;14.604;2023-05-07T05:43:07;2.17;;;2.08;;
66425;SDS011;53237;46.158;14.604;2023-05-07T05:45:33;2.53;;;2.33;;
66425;SDS011;53237;46.158;14.604;2023-05-07T05:48:00;2.42;;;2.28;;
66425;SDS011;53237;46.158;14.604;2023-05-07T05:50:26;2.60;;;2.40;;
66425;SDS011;53237;46.158;14.604;2023-05-07T05:52:52;2.35;;;2.20;;
66425;SDS011;53237;46.158;14.604;2023-05-07T05:55:18;2.45;;;2.25;;
66425;SDS011;53237;46.158;14.604;2023-05-07T05:57:44;2.33;;;2.10;;
66425;SDS011;53237;46.158;14.604;2023-05-07T06:00:11;2.88;;;2.28;;
66425;SDS011;53237;46.158;14.604;2023-05-07T06:02:37;3.65;;;2.60;;
66425;SDS011;53237;46.158;14.604;2023-05-07T06:05:03;2.97;;;2.78;;
66425;SDS011;53237;46.158;14.604;2023-05-07T06:07:29;4.25;;;3.90;;
66425;SDS011;53237;46.158;14.604;2023-05-07T06:09:55;3.88;;;3.58;;
66425;SDS011;53237;46.158;14.604;2023-05-07T06:12:21;3.25;;;3.05;;
66425;SDS011;53237;46.158;14.604;2023-05-07T06:14:47;3.20;;;3.00;;
66425;SDS011;53237;46.158;14.604;2023-05-07T06:17:13;3.83;;;3.42;;
66425;SDS011;53237;46.158;14.604;2023-05-07T06:19:39;3.42;;;3.15;;
66425;SDS011;53237;46.158;14.604;2023-05-07T06:22:05;3.67;;;3.38;;
66425;SDS011;53237;46.158;14.604;2023-05-07T06:24:31;3.35;;;3.08;;
66425;SDS011;53237;46.158;14.604;2023-05-07T06:26:57;3.72;;;3.42;;
66425;SDS011;53237;46.158;14.604;2023-05-07T06:29:23;3.63;;;3.33;;
66425;SDS011;53237;46.158;14.604;2023-05-07T06:31:51;3.42;;;3.22;;
66425;SDS011;53237;46.158;14.604;2023-05-07T06:34:17;2.92;;;2.72;;
66425;SDS011;53237;46.158;14.604;2023-05-07T06:36:43;4.07;;;3.78;;
66425;SDS011;53237;46.158;14.604;2023-05-07T06:39:09;2.90;;;2.70;;
66425;SDS011;53237;46.158;14.604;2023-05-07T06:41:35;2.92;;;2.72;;
66425;SDS011;53237;46.158;14.604;2023-05-07T06:44:01;2.33;;;2.22;;
66425;SDS011;53237;46.158;14.604;2023-05-07T06:46:28;3.38;;;3.08;;
66425;SDS011;53237;46.158;14.604;2023-05-07T06:48:54;4.30;;;4.00;;
66425;SDS011;53237;46.158;14.604;2023-05-07T06:51:21;4.60;;;4.20;;
66425;SDS011;53237;46.158;14.604;2023-05-07T06:53:47;4.03;;;3.65;;
66425;SDS011;53237;46.158;14.604;2023-05-07T06:56:13;4.38;;;3.38;;
66425;SDS011;53237;46.158;14.604;2023-05-07T06:58:39;2.42;;;2.30;;
66425;SDS011;53237;46.158;14.604;2023-05-07T07:01:05;4.20;;;2.70;;
66425;SDS011;53237;46.158;14.604;2023-05-07T07:03:31;3.03;;;2.83;;
66425;SDS011;53237;46.158;14.604;2023-05-07T07:05:57;3.28;;;3.08;;
66425;SDS011;53237;46.158;14.604;2023-05-07T07:08:23;3.38;;;3.08;;
66425;SDS011;53237;46.158;14.604;2023-05-07T07:10:49;3.53;;;3.30;;
66425;SDS011;53237;46.158;14.604;2023-05-07T07:13:15;4.10;;;3.80;;
66425;SDS011;53237;46.158;14.604;2023-05-07T07:15:41;3.80;;;3.40;;
66425;SDS011;53237;46.158;14.604;2023-05-07T07:18:08;3.33;;;3.13;;
66425;SDS011;53237;46.158;14.604;2023-05-07T07:20:34;4.68;;;4.25;;
66425;SDS011;53237;46.158;14.604;2023-05-07T07:23:00;4.07;;;3.58;;
66425;SDS011;53237;46.158;14.604;2023-05-07T07:25:26;3.20;;;3.00;;
66425;SDS011;53237;46.158;14.604;2023-05-07T07:27:52;3.90;;;3.50;;
66425;SDS011;53237;46.158;14.604;2023-05-07T07:30:18;4.55;;;4.18;;
66425;SDS011;53237;46.158;14.604;2023-05-07T07:32:44;4.43;;;3.47;;
66425;SDS011;53237;46.158;14.604;2023-05-07T07:35:10;4.20;;;3.63;;
66425;SDS011;53237;46.158;14.604;2023-05-07T07:37:35;4.15;;;3.83;;
66425;SDS011;53237;46.158;14.604;2023-05-07T07:40:02;4.93;;;3.55;;
66425;SDS011;53237;46.158;14.604;2023-05-07T07:42:28;4.15;;;3.85;;
66425;SDS011;53237;46.158;14.604;2023-05-07T07:44:54;4.40;;;4.00;;
66425;SDS011;53237;46.158;14.604;2023-05-07T07:47:22;4.13;;;3.65;;
66425;SDS011;53237;46.158;14.604;2023-05-07T07:49:48;3.88;;;3.17;;
66425;SDS011;53237;46.158;14.604;2023-05-07T07:52:13;3.40;;;2.63;;
66425;SDS011;53237;46.158;14.604;2023-05-07T07:54:40;3.55;;;3.25;;
66425;SDS011;53237;46.158;14.604;2023-05-07T07:57:06;2.88;;;2.67;;
66425;SDS011;53237;46.158;14.604;2023-05-07T07:59:32;3.83;;;3.53;;
66425;SDS011;53237;46.158;14.604;2023-05-07T08:01:58;3.85;;;3.55;;
66425;SDS011;53237;46.158;14.604;2023-05-07T08:04:24;3.20;;;2.90;;
66425;SDS011;53237;46.158;14.604;2023-05-07T08:06:50;3.30;;;3.00;;
66425;SDS011;53237;46.158;14.604;2023-05-07T08:09:16;3.88;;;3.22;;
66425;SDS011;53237;46.158;14.604;2023-05-07T08:11:42;3.40;;;3.10;;
66425;SDS011;53237;46.158;14.604;2023-05-07T08:14:08;3.40;;;3.10;;
66425;SDS011;53237;46.158;14.604;2023-05-07T08:16:34;3.25;;;2.95;;
66425;SDS011;53237;46.158;14.604;2023-05-07T08:19:00;3.92;;;2.97;;
66425;SDS011;53237;46.158;14.604;2023-05-07T08:21:26;2.65;;;2.45;;
66425;SDS011;53237;46.158;14.604;2023-05-07T08:23:52;3.00;;;2.80;;
66425;SDS011;53237;46.158;14.604;2023-05-07T08:26:18;3.05;;;2.85;;
66425;SDS011;53237;46.158;14.604;2023-05-07T08:28:45;2.90;;;2.70;;
66425;SDS011;53237;46.158;14.604;2023-05-07T08:31:11;3.20;;;2.92;;
66425;SDS011;53237;46.158;14.604;2023-05-07T08:33:37;2.85;;;2.65;;
66425;SDS011;53237;46.158;14.604;2023-05-07T08:36:03;3.38;;;3.08;;
66425;SDS011;53237;46.158;14.604;2023-05-07T08:38:31;3.15;;;2.95;;
66425;SDS011;53237;46.158;14.604;2023-05-07T08:40:57;2.78;;;2.58;;
66425;SDS011;53237;46.158;14.604;2023-05-07T08:43:24;3.00;;;2.80;;
66425;SDS011;53237;46.158;14.604;2023-05-07T08:45:52;2.70;;;2.50;;
66425;SDS011;53237;46.158;14.604;2023-05-07T08:48:20;3.38;;;2.92;;
66425;SDS011;53237;46.158;14.604;2023-05-07T08:50:47;2.80;;;2.60;;
66425;SDS011;53237;46.158;14.604;2023-05-07T08:53:13;3.00;;;2.80;;
66425;SDS011;53237;46.158;14.604;2023-05-07T08:55:39;3.10;;;2.80;;
66425;SDS011;53237;46.158;14.604;2023-05-07T08:58:05;3.63;;;3.33;;
66425;SDS011;53237;46.158;14.604;2023-05-07T09:00:32;3.78;;;3.47;;
66425;SDS011;53237;46.158;14.604;2023-05-07T09:02:58;4.40;;;3.72;;
66425;SDS011;53237;46.158;14.604;2023-05-07T09:05:24;3.58;;;3.28;;
66425;SDS011;53237;46.158;14.604;2023-05-07T09:07:50;3.60;;;3.30;;
66425;SDS011;53237;46.158;14.604;2023-05-07T09:10:16;3.58;;;3.38;;
66425;SDS011;53237;46.158;14.604;2023-05-07T09:12:41;3.17;;;2.97;;
66425;SDS011;53237;46.158;14.604;2023-05-07T09:15:08;3.20;;;3.00;;
66425;SDS011;53237;46.158;14.604;2023-05-07T09:17:34;2.92;;;2.63;;
66425;SDS011;53237;46.158;14.604;2023-05-07T09:20:03;3.15;;;2.90;;
66425;SDS011;53237;46.158;14.604;2023-05-07T09:22:32;2.80;;;2.60;;
66425;SDS011;53237;46.158;14.604;2023-05-07T09:24:58;2.80;;;2.60;;
66425;SDS011;53237;46.158;14.604;2023-05-07T09:27:24;3.10;;;2.90;;
66425;SDS011;53237;46.158;14.604;2023-05-07T09:29:51;3.28;;;3.03;;
66425;SDS011;53237;46.158;14.604;2023-05-07T09:32:17;2.63;;;2.42;;
66425;SDS011;53237;46.158;14.604;2023-05-07T09:34:43;2.70;;;2.50;;
66425;SDS011;53237;46.158;14.604;2023-05-07T09:37:10;3.15;;;2.95;;
66425;SDS011;53237;46.158;14.604;2023-05-07T09:39:44;2.88;;;2.67;;
66425;SDS011;53237;46.158;14.604;2023-05-07T09:42:11;3.05;;;2.85;;
66425;SDS011;53237;46.158;14.604;2023-05-07T09:44:37;3.80;;;3.50;;
66425;SDS011;53237;46.158;14.604;2023-05-07T09:47:07;3.70;;;3.30;;
66425;SDS011;53237;46.158;14.604;2023-05-07T09:49:38;3.20;;;2.90;;
66425;SDS011;53237;46.158;14.604;2023-05-07T09:52:07;3.10;;;2.80;;
66425;SDS011;53237;46.158;14.604;2023-05-07T09:54:35;3.33;;;3.13;;
66425;SDS011;53237;46.158;14.604;2023-05-07T09:57:02;5.55;;;2.97;;
66425;SDS011;53237;46.158;14.604;2023-05-07T09:59:29;3.20;;;2.97;;
66425;SDS011;53237;46.158;14.604;2023-05-07T10:01:57;3.83;;;3.45;;
66425;SDS011;53237;46.158;14.604;2023-05-07T10:04:26;3.40;;;3.10;;
66425;SDS011;53237;46.158;14.604;2023-05-07T10:06:52;3.65;;;3.35;;
66425;SDS011;53237;46.158;14.604;2023-05-07T10:09:20;4.75;;;3.20;;
66425;SDS011;53237;46.158;14.604;2023-05-07T10:11:46;3.28;;;3.00;;
66425;SDS011;53237;46.158;14.604;2023-05-07T10:14:14;4.47;;;3.65;;
66425;SDS011;53237;46.158;14.604;2023-05-07T10:16:40;3.05;;;2.78;;
66425;SDS011;53237;46.158;14.604;2023-05-07T10:19:07;3.45;;;3.22;;
66425;SDS011;53237;46.158;14.604;2023-05-07T10:21:36;3.85;;;3.55;;
66425;SDS011;53237;46.158;14.604;2023-05-07T10:24:07;4.28;;;3.90;;
66425;SDS011;53237;46.158;14.604;2023-05-07T10:26:43;3.35;;;3.15;;
66425;SDS011;53237;46.158;14.604;2023-05-07T10:29:18;3.65;;;3.40;;
66425;SDS011;53237;46.158;14.604;2023-05-07T10:31:50;3.53;;;3.20;;
66425;SDS011;53237;46.158;14.604;2023-05-07T10:36:45;3.38;;;3.08;;
66425;SDS011;53237;46.158;14.604;2023-05-07T10:39:12;3.20;;;3.00;;
66425;SDS011;53237;46.158;14.604;2023-05-07T10:41:38;2.80;;;2.47;;
66425;SDS011;53237;46.158;14.604;2023-05-07T10:44:05;2.90;;;2.70;;
66425;SDS011;53237;46.158;14.604;2023-05-07T10:46:31;2.30;;;2.20;;
66425;SDS011;53237;46.158;14.604;2023-05-07T10:51:27;3.72;;;3.42;;
66425;SDS011;53237;46.158;14.604;2023-05-07T11:01:59;3.03;;;2.83;;
66425;SDS011;53237;46.158;14.604;2023-05-07T11:04:31;3.75;;;2.78;;
66425;SDS011;53237;46.158;14.604;2023-05-07T11:07:23;3.83;;;3.45;;
66425;SDS011;53237;46.158;14.604;2023-05-07T11:13:03;3.25;;;2.95;;
66425;SDS011;53237;46.158;14.604;2023-05-07T11:15:05;2.70;;;2.58;;
66425;SDS011;53237;46.158;14.604;2023-05-07T11:17:32;3.17;;;2.92;;
66425;SDS011;53237;46.158;14.604;2023-05-07T11:19:59;2.50;;;2.30;;
66425;SDS011;53237;46.158;14.604;2023-05-07T11:25:01;2.90;;;2.70;;
66425;SDS011;53237;46.158;14.604;2023-05-07T11:27:27;2.38;;;2.20;;
66425;SDS011;53237;46.158;14.604;2023-05-07T11:29:54;2.30;;;2.10;;
66425;SDS011;53237;46.158;14.604;2023-05-07T11:32:38;2.10;;;2.00;;
66425;SDS011;53237;46.158;14.604;2023-05-07T11:35:04;2.30;;;2.20;;
66425;SDS011;53237;46.158;14.604;2023-05-07T11:37:30;2.42;;;2.25;;
66425;SDS011;53237;46.158;14.604;2023-05-07T11:40:03;2.40;;;2.25;;
66425;SDS011;53237;46.158;14.604;2023-05-07T11:42:37;2.95;;;2.75;;
66425;SDS011;53237;46.158;14.604;2023-05-07T11:45:03;2.70;;;2.50;;
66425;SDS011;53237;46.158;14.604;2023-05-07T11:47:30;2.28;;;2.10;;
66425;SDS011;53237;46.158;14.604;2023-05-07T11:49:57;1.80;;;1.70;;
66425;SDS011;53237;46.158;14.604;2023-05-07T11:52:27;1.83;;;1.73;;
66425;SDS011;53237;46.158;14.604;2023-05-07T11:54:54;2.20;;;2.10;;
66425;SDS011;53237;46.158;14.604;2023-05-07T11:57:20;2.20;;;2.08;;
66425;SDS011;53237;46.158;14.604;2023-05-07T11:59:46;3.35;;;2.20;;
66425;SDS011;53237;46.158;14.604;2023-05-07T12:02:16;2.03;;;1.92;;
66425;SDS011;53237;46.158;14.604;2023-05-07T12:04:42;2.65;;;1.80;;
66425;SDS011;53237;46.158;14.604;2023-05-07T12:07:12;2.00;;;1.90;;
66425;SDS011;53237;46.158;14.604;2023-05-07T12:09:38;2.33;;;2.10;;
66425;SDS011;53237;46.158;14.604;2023-05-07T12:12:05;2.15;;;1.95;;
66425;SDS011;53237;46.158;14.604;2023-05-07T12:14:31;2.10;;;1.80;;
66425;SDS011;53237;46.158;14.604;2023-05-07T12:16:57;1.73;;;1.63;;
66425;SDS011;53237;46.158;14.604;2023-05-07T12:19:23;2.10;;;2.00;;
66425;SDS011;53237;46.158;14.604;2023-05-07T12:21:49;2.20;;;2.10;;
66425;SDS011;53237;46.158;14.604;2023-05-07T12:24:16;1.80;;;1.70;;
66425;SDS011;53237;46.158;14.604;2023-05-07T12:26:43;1.90;;;1.80;;
66425;SDS011;53237;46.158;14.604;2023-05-07T12:29:09;1.67;;;1.58;;
66425;SDS011;53237;46.158;14.604;2023-05-07T12:31:35;2.67;;;1.70;;
66425;SDS011;53237;46.158;14.604;2023-05-07T12:34:02;2.55;;;1.90;;
66425;SDS011;53237;46.158;14.604;2023-05-07T12:36:35;2.00;;;1.90;;
66425;SDS011;53237;46.158;14.604;2023-05-07T12:39:03;1.65;;;1.55;;
66425;SDS011;53237;46.158;14.604;2023-05-07T12:41:30;2.20;;;1.90;;
66425;SDS011;53237;46.158;14.604;2023-05-07T12:43:56;1.90;;;1.80;;
66425;SDS011;53237;46.158;14.604;2023-05-07T12:46:22;2.22;;;1.90;;
66425;SDS011;53237;46.158;14.604;2023-05-07T12:48:48;1.80;;;1.70;;
66425;SDS011;53237;46.158;14.604;2023-05-07T12:51:15;2.10;;;1.92;;
66425;SDS011;53237;46.158;14.604;2023-05-07T12:53:41;2.40;;;1.70;;
66425;SDS011;53237;46.158;14.604;2023-05-07T12:56:07;1.70;;;1.60;;
66425;SDS011;53237;46.158;14.604;2023-05-07T12:58:34;2.65;;;1.92;;
66425;SDS011;53237;46.158;14.604;2023-05-07T13:01:04;2.25;;;2.10;;
66425;SDS011;53237;46.158;14.604;2023-05-07T13:03:31;2.03;;;1.90;;
66425;SDS011;53237;46.158;14.604;2023-05-07T13:05:58;4.53;;;2.38;;
66425;SDS011;53237;46.158;14.604;2023-05-07T13:08:29;6.07;;;2.20;;
66425;SDS011;53237;46.158;14.604;2023-05-07T13:10:56;2.00;;;1.90;;
66425;SDS011;53237;46.158;14.604;2023-05-07T13:13:22;2.55;;;2.08;;
66425;SDS011;53237;46.158;14.604;2023-05-07T13:15:48;2.42;;;2.10;;
66425;SDS011;53237;46.158;14.604;2023-05-07T13:18:14;3.15;;;2.08;;
66425;SDS011;53237;46.158;14.604;2023-05-07T13:20:40;2.67;;;2.13;;
66425;SDS011;53237;46.158;14.604;2023-05-07T13:23:06;2.95;;;1.90;;
66425;SDS011;53237;46.158;14.604;2023-05-07T13:25:32;2.97;;;1.70;;
66425;SDS011;53237;46.158;14.604;2023-05-07T13:27:58;1.98;;;1.88;;
66425;SDS011;53237;46.158;14.604;2023-05-07T13:30:24;2.28;;;2.08;;
66425;SDS011;53237;46.158;14.604;2023-05-07T13:32:51;3.00;;;2.20;;
66425;SDS011;53237;46.158;14.604;2023-05-07T13:35:17;2.20;;;2.00;;
66425;SDS011;53237;46.158;14.604;2023-05-07T13:37:43;1.92;;;1.83;;
66425;SDS011;53237;46.158;14.604;2023-05-07T13:40:09;2.30;;;2.20;;
66425;SDS011;53237;46.158;14.604;2023-05-07T13:42:35;2.03;;;1.92;;
66425;SDS011;53237;46.158;14.604;2023-05-07T13:45:01;2.45;;;2.35;;
66425;SDS011;53237;46.158;14.604;2023-05-07T13:47:30;2.25;;;2.05;;
66425;SDS011;53237;46.158;14.604;2023-05-07T13:49:56;2.45;;;2.25;;
66425;SDS011;53237;46.158;14.604;2023-05-07T13:52:22;2.53;;;2.33;;
66425;SDS011;53237;46.158;14.604;2023-05-07T13:54:48;2.88;;;2.15;;
66425;SDS011;53237;46.158;14.604;2023-05-07T13:57:14;1.90;;;1.80;;
66425;SDS011;53237;46.158;14.604;2023-05-07T13:59:40;2.10;;;2.00;;
66425;SDS011;53237;46.158;14.604;2023-05-07T14:02:06;2.50;;;2.40;;
66425;SDS011;53237;46.158;14.604;2023-05-07T14:04:33;2.38;;;2.17;;
66425;SDS011;53237;46.158;14.604;2023-05-07T14:06:59;2.40;;;2.20;;
66425;SDS011;53237;46.158;14.604;2023-05-07T14:09:25;1.90;;;1.80;;
66425;SDS011;53237;46.158;14.604;2023-05-07T14:11:51;2.30;;;2.10;;
66425;SDS011;53237;46.158;14.604;2023-05-07T14:14:18;1.75;;;1.58;;
66425;SDS011;53237;46.158;14.604;2023-05-07T14:16:44;2.33;;;2.20;;
66425;SDS011;53237;46.158;14.604;2023-05-07T14:19:11;1.70;;;1.60;;
66425;SDS011;53237;46.158;14.604;2023-05-07T14:21:37;1.90;;;1.80;;
66425;SDS011;53237;46.158;14.604;2023-05-07T14:24:03;2.00;;;1.90;;
66425;SDS011;53237;46.158;14.604;2023-05-07T14:26:29;2.13;;;2.03;;
66425;SDS011;53237;46.158;14.604;2023-05-07T14:28:55;2.00;;;1.90;;
66425;SDS011;53237;46.158;14.604;2023-05-07T14:31:23;2.60;;;2.40;;
66425;SDS011;53237;46.158;14.604;2023-05-07T14:33:49;2.78;;;2.58;;
66425;SDS011;53237;46.158;14.604;2023-05-07T14:36:15;2.33;;;2.22;;
66425;SDS011;53237;46.158;14.604;2023-05-07T14:38:42;2.47;;;2.35;;
66425;SDS011;53237;46.158;14.604;2023-05-07T14:41:08;3.65;;;2.55;;
66425;SDS011;53237;46.158;14.604;2023-05-07T14:43:33;2.80;;;2.60;;
66425;SDS011;53237;46.158;14.604;2023-05-07T14:45:59;3.00;;;2.80;;
66425;SDS011;53237;46.158;14.604;2023-05-07T14:48:25;2.83;;;2.63;;